createdAt,value
2022-12-29T00:01:41.631Z,2.35
2022-12-29T00:04:14.285Z,2.25
2022-12-29T00:06:42.679Z,2.03
2022-12-29T00:09:09.429Z,3.05
2022-12-29T00:11:35.931Z,2.63
2022-12-29T00:14:25.872Z,2.50
2022-12-29T00:16:52.685Z,2.05
2022-12-29T00:19:38.121Z,2.67
2022-12-29T00:22:22.826Z,1.95
2022-12-29T00:25:01.104Z,2.80
2022-12-29T00:27:46.628Z,3.65
2022-12-29T00:33:19.011Z,1.92
2022-12-29T00:35:53.161Z,2.00
2022-12-29T00:38:38.786Z,2.33
2022-12-29T00:41:23.635Z,1.65
2022-12-29T00:44:08.132Z,1.88
2022-12-29T00:46:35.991Z,2.55
2022-12-29T00:49:22.105Z,4.30
2022-12-29T00:51:49.136Z,2.28
2022-12-29T00:54:16.558Z,4.25
2022-12-29T00:56:47.338Z,2.30
2022-12-29T00:59:13.740Z,3.50
2022-12-29T01:01:41.250Z,3.05
2022-12-29T01:04:08.996Z,2.10
2022-12-29T01:06:37.187Z,2.45
2022-12-29T01:09:22.996Z,2.78
2022-12-29T01:11:49.627Z,4.15
2022-12-29T01:14:16.064Z,3.08
2022-12-29T01:16:44.631Z,2.58
2022-12-29T01:19:11.201Z,2.47
2022-12-29T01:21:37.717Z,3.00
2022-12-29T01:24:04.280Z,2.00
2022-12-29T01:26:30.727Z,2.25
2022-12-29T01:28:57.143Z,4.53
2022-12-29T01:31:23.593Z,2.05
2022-12-29T01:33:50.033Z,3.08
2022-12-29T01:36:19.281Z,1.48
2022-12-29T01:38:45.800Z,1.50
2022-12-29T01:41:14.214Z,1.85
2022-12-29T01:43:52.581Z,1.90
2022-12-29T01:46:45.136Z,0.75
2022-12-29T01:49:16.547Z,1.95
2022-12-29T01:52:03.574Z,1.63
2022-12-29T01:54:43.984Z,2.03
2022-12-29T01:57:17.652Z,0.85
2022-12-29T01:59:52.162Z,1.53
2022-12-29T02:04:58.856Z,1.47
2022-12-29T02:07:29.229Z,0.68
2022-12-29T02:09:56.906Z,1.02
2022-12-29T02:12:25.132Z,0.85
2022-12-29T02:14:56.637Z,1.20
2022-12-29T02:17:28.788Z,1.73
2022-12-29T02:20:13.709Z,1.33
2022-12-29T02:23:04.433Z,1.63
2022-12-29T02:25:49.105Z,0.75
2022-12-29T02:28:36.790Z,0.97
2022-12-29T02:31:25.733Z,1.08
2022-12-29T02:37:13.954Z,1.40
2022-12-29T02:39:59.600Z,1.15
2022-12-29T02:42:48.827Z,1.10
2022-12-29T02:45:29.036Z,1.27
2022-12-29T02:48:18.438Z,0.70
2022-12-29T02:51:19.684Z,1.02
2022-12-29T02:54:05.009Z,0.85
2022-12-29T02:56:31.605Z,1.10
2022-12-29T02:58:58.003Z,1.10
2022-12-29T03:02:03.418Z,1.45
2022-12-29T03:04:40.448Z,0.85
2022-12-29T03:07:38.519Z,2.63
2022-12-29T03:10:42.438Z,1.55
2022-12-29T03:13:32.358Z,2.63
2022-12-29T03:16:12.291Z,1.17
2022-12-29T03:18:45.242Z,1.98
2022-12-29T03:21:48.893Z,0.73
2022-12-29T03:24:18.645Z,1.20
2022-12-29T03:26:48.366Z,1.30
2022-12-29T03:29:17.789Z,1.25
2022-12-29T03:31:46.550Z,1.67
2022-12-29T03:34:15.727Z,1.50
2022-12-29T03:37:00.752Z,3.08
2022-12-29T03:39:27.639Z,1.58
2022-12-29T03:42:02.529Z,1.77
2022-12-29T03:44:41.747Z,2.05
2022-12-29T03:47:08.787Z,2.08
2022-12-29T03:49:35.227Z,2.83
2022-12-29T03:52:01.785Z,1.85
2022-12-29T03:54:28.243Z,1.73
2022-12-29T03:56:54.706Z,1.70
2022-12-29T03:59:21.148Z,3.42
2022-12-29T04:01:47.808Z,2.47
2022-12-29T04:04:14.574Z,3.28
2022-12-29T04:06:41.229Z,2.38
2022-12-29T04:09:08.061Z,2.17
2022-12-29T04:11:34.714Z,2.00
2022-12-29T04:14:01.200Z,1.95
2022-12-29T04:16:27.688Z,1.65
2022-12-29T04:18:54.247Z,3.08
2022-12-29T04:21:20.677Z,1.45
2022-12-29T04:23:47.081Z,1.83
2022-12-29T04:26:13.479Z,1.63
2022-12-29T04:28:41.010Z,1.40
2022-12-29T04:31:07.819Z,1.55
2022-12-29T04:33:34.347Z,1.38
2022-12-29T04:36:00.745Z,2.05
2022-12-29T04:38:27.184Z,2.17
2022-12-29T04:40:53.642Z,2.67
2022-12-29T04:43:20.332Z,4.55
2022-12-29T04:45:47.558Z,2.13
2022-12-29T04:48:14.972Z,1.50
2022-12-29T04:50:42.075Z,1.45
2022-12-29T04:53:08.964Z,2.85
2022-12-29T04:55:35.547Z,2.00
2022-12-29T04:58:02.077Z,1.55
2022-12-29T05:00:28.511Z,2.22
2022-12-29T05:02:57.719Z,0.85
2022-12-29T05:05:24.453Z,1.10
2022-12-29T05:07:50.839Z,2.28
2022-12-29T05:10:17.985Z,1.13
2022-12-29T05:12:44.759Z,1.27
2022-12-29T05:15:13.308Z,1.27
2022-12-29T05:17:39.737Z,1.67
2022-12-29T05:20:07.508Z,2.25
2022-12-29T05:22:34.271Z,1.35
2022-12-29T05:25:00.898Z,1.73
2022-12-29T05:27:27.430Z,1.48
2022-12-29T05:29:53.799Z,1.20
2022-12-29T05:32:20.392Z,1.05
2022-12-29T05:34:46.811Z,1.63
2022-12-29T05:37:13.471Z,1.20
2022-12-29T05:39:39.983Z,4.65
2022-12-29T05:42:06.347Z,2.03
2022-12-29T05:44:32.779Z,2.97
2022-12-29T05:46:59.303Z,1.05
2022-12-29T05:49:25.827Z,1.60
2022-12-29T05:51:53.480Z,1.95
2022-12-29T05:54:20.023Z,1.50
2022-12-29T05:56:46.457Z,3.05
2022-12-29T05:59:12.853Z,2.17
2022-12-29T06:01:39.304Z,1.95
2022-12-29T06:04:05.816Z,4.20
2022-12-29T06:06:33.403Z,1.73
2022-12-29T06:08:59.828Z,2.78
2022-12-29T06:11:26.616Z,1.70
2022-12-29T06:13:52.979Z,1.40
2022-12-29T06:16:29.407Z,1.58
2022-12-29T06:18:58.860Z,2.08
2022-12-29T06:21:28.320Z,3.83
2022-12-29T06:23:54.722Z,2.50
2022-12-29T06:26:21.193Z,2.70
2022-12-29T06:28:47.651Z,4.22
2022-12-29T06:31:14.205Z,4.50
2022-12-29T06:33:40.597Z,4.18
2022-12-29T06:36:07.418Z,1.88
2022-12-29T06:38:33.843Z,2.78
2022-12-29T06:41:00.237Z,2.35
2022-12-29T06:43:26.666Z,5.82
2022-12-29T06:45:53.067Z,4.00
2022-12-29T06:48:19.480Z,3.33
2022-12-29T06:50:45.821Z,2.80
2022-12-29T06:53:12.458Z,2.58
2022-12-29T06:55:38.901Z,3.03
2022-12-29T06:58:05.305Z,2.42
2022-12-29T07:00:31.737Z,3.50
2022-12-29T07:02:59.112Z,3.75
2022-12-29T07:05:28.475Z,4.63
2022-12-29T07:07:55.731Z,2.78
2022-12-29T07:10:22.515Z,5.45
2022-12-29T07:12:48.872Z,2.83
2022-12-29T07:15:15.311Z,3.67
2022-12-29T07:17:41.850Z,4.95
2022-12-29T07:20:09.418Z,5.13
2022-12-29T07:22:36.083Z,1.70
2022-12-29T07:25:03.424Z,2.97
2022-12-29T07:27:29.798Z,2.95
2022-12-29T07:29:56.239Z,5.68
2022-12-29T07:32:22.648Z,7.82
2022-12-29T07:34:49.173Z,9.82
2022-12-29T07:37:17.023Z,3.15
2022-12-29T07:39:44.069Z,2.35
2022-12-29T07:42:10.552Z,1.27
2022-12-29T07:44:37.684Z,1.35
2022-12-29T07:47:04.226Z,1.23
2022-12-29T07:49:30.835Z,1.10
2022-12-29T07:51:57.389Z,0.95
2022-12-29T07:54:24.313Z,1.52
2022-12-29T07:56:51.577Z,1.15
2022-12-29T07:59:18.300Z,1.20
2022-12-29T08:01:44.841Z,0.90
2022-12-29T08:04:11.477Z,0.90
2022-12-29T08:06:40.576Z,0.55
2022-12-29T08:09:15.115Z,1.80
2022-12-29T08:11:46.368Z,2.50
2022-12-29T08:14:12.748Z,1.05
2022-12-29T08:16:39.224Z,3.53
2022-12-29T08:19:08.319Z,2.88
2022-12-29T08:21:35.001Z,2.20
2022-12-29T08:24:01.474Z,1.95
2022-12-29T08:26:27.907Z,0.90
2022-12-29T08:28:55.461Z,3.15
2022-12-29T08:31:22.933Z,1.30
2022-12-29T08:33:49.683Z,2.50
2022-12-29T08:36:16.213Z,3.13
2022-12-29T08:38:42.720Z,1.67
2022-12-29T08:41:09.184Z,0.95
2022-12-29T08:43:35.778Z,1.20
2022-12-29T08:46:02.392Z,1.00
2022-12-29T08:48:35.159Z,3.50
2022-12-29T08:51:01.678Z,3.63
2022-12-29T08:53:28.242Z,3.70
2022-12-29T08:56:04.538Z,1.45
2022-12-29T08:58:34.352Z,2.58
2022-12-29T09:01:04.545Z,1.15
2022-12-29T09:04:04.415Z,0.95
2022-12-29T09:06:18.654Z,2.33
2022-12-29T09:08:45.488Z,1.25
2022-12-29T09:11:14.299Z,1.98
2022-12-29T09:13:40.950Z,2.67
2022-12-29T09:16:07.879Z,2.42
2022-12-29T09:18:37.332Z,3.45
2022-12-29T09:21:06.140Z,1.92
2022-12-29T09:23:32.920Z,1.85
2022-12-29T09:25:59.365Z,3.53
2022-12-29T09:28:32.208Z,3.53
2022-12-29T09:30:59.743Z,4.07
2022-12-29T09:33:26.891Z,5.32
2022-12-29T09:35:58.351Z,2.25
2022-12-29T09:38:26.407Z,2.53
2022-12-29T09:40:56.788Z,2.40
2022-12-29T09:43:55.559Z,2.33
2022-12-29T09:46:26.802Z,4.55
2022-12-29T09:49:30.883Z,2.25
2022-12-29T09:52:23.541Z,6.80
2022-12-29T09:55:03.285Z,4.60
2022-12-29T09:57:36.944Z,4.43
2022-12-29T10:00:12.291Z,2.67
2022-12-29T10:02:45.747Z,1.27
2022-12-29T10:05:30.931Z,4.75
2022-12-29T10:08:24.206Z,2.55
2022-12-29T10:11:25.814Z,3.58
2022-12-29T10:14:15.851Z,3.40
2022-12-29T10:17:13.771Z,4.65
2022-12-29T10:19:49.358Z,2.33
2022-12-29T10:22:39.861Z,3.58
2022-12-29T10:25:19.345Z,3.20
2022-12-29T10:27:49.683Z,3.70
2022-12-29T10:30:17.278Z,2.92
2022-12-29T10:33:09.970Z,4.40
2022-12-29T10:35:39.938Z,2.38
2022-12-29T10:38:23.548Z,4.45
2022-12-29T10:40:57.499Z,3.75
2022-12-29T10:43:35.334Z,5.78
2022-12-29T10:46:19.626Z,4.38
2022-12-29T10:48:47.634Z,2.17
2022-12-29T10:51:26.571Z,5.30
2022-12-29T10:54:00.103Z,1.63
2022-12-29T10:57:05.720Z,3.08
2022-12-29T10:59:36.383Z,5.53
2022-12-29T11:02:11.776Z,3.75
2022-12-29T11:04:44.089Z,5.90
2022-12-29T11:07:16.110Z,1.60
2022-12-29T11:09:45.068Z,5.88
2022-12-29T11:12:31.634Z,3.42
2022-12-29T11:15:24.439Z,6.93
2022-12-29T11:17:58.852Z,5.38
2022-12-29T11:20:28.387Z,2.00
2022-12-29T11:22:55.172Z,5.80
2022-12-29T11:25:21.557Z,8.32
2022-12-29T11:27:58.194Z,4.32
2022-12-29T11:30:27.785Z,2.03
2022-12-29T11:32:55.686Z,7.47
2022-12-29T11:35:39.024Z,3.78
2022-12-29T11:38:06.199Z,2.60
2022-12-29T22:41:17.443Z,9.60
2022-12-29T22:43:44.010Z,9.85
2022-12-29T22:46:11.776Z,5.85
2022-12-29T22:48:39.048Z,7.22
2022-12-29T22:51:05.968Z,14.32
2022-12-29T22:53:32.716Z,4.28
2022-12-29T22:56:03.339Z,6.15
2022-12-29T22:58:29.919Z,7.20
2022-12-29T23:00:56.534Z,11.35
2022-12-29T23:03:23.194Z,6.25
2022-12-29T23:06:00.888Z,11.00
2022-12-29T23:08:30.932Z,13.75
2022-12-29T23:10:57.857Z,7.18
2022-12-29T23:13:24.424Z,9.30
2022-12-29T23:15:51.640Z,5.43
2022-12-29T23:18:18.668Z,11.05
2022-12-29T23:20:48.094Z,11.30
2022-12-29T23:23:48.418Z,3.70
2022-12-29T23:26:16.318Z,6.70
2022-12-29T23:28:42.861Z,5.22
2022-12-29T23:31:09.778Z,8.90
2022-12-29T23:33:36.593Z,10.15
2022-12-29T23:36:03.185Z,10.43
2022-12-29T23:38:29.676Z,6.00
2022-12-29T23:40:56.207Z,7.13
2022-12-29T23:43:22.840Z,10.82
2022-12-29T23:45:51.279Z,11.70
2022-12-29T23:48:18.859Z,6.65
2022-12-29T23:50:45.940Z,11.90
2022-12-29T23:53:12.795Z,10.02
2022-12-29T23:55:43.557Z,12.35
2022-12-29T23:58:10.687Z,6.18
